createdAt,value
2019-04-27T00:01:56.100Z,19.20
2019-04-27T00:05:00.677Z,19.20
2019-04-27T00:07:57.973Z,19.20
2019-04-27T00:10:47.667Z,19.20
2019-04-27T00:13:40.454Z,19.10
2019-04-27T00:16:27.873Z,19.10
2019-04-27T00:19:35.453Z,19.10
2019-04-27T00:22:24.641Z,19.10
2019-04-27T00:25:13.144Z,19.10
2019-04-27T00:28:01.357Z,19.10
2019-04-27T00:30:49.514Z,19.00
2019-04-27T00:33:37.774Z,19.10
2019-04-27T00:36:27.337Z,19.00
2019-04-27T00:39:17.317Z,19.00
2019-04-27T00:42:05.457Z,19.00
2019-04-27T00:44:54.186Z,19.00
2019-04-27T00:47:54.636Z,19.00
2019-04-27T00:50:33.828Z,18.90
2019-04-27T00:53:23.535Z,18.90
2019-04-27T00:56:28.840Z,18.90
2019-04-27T00:59:25.029Z,18.90
2019-04-27T01:02:23.671Z,18.90
2019-04-27T01:05:13.451Z,18.90
2019-04-27T01:08:01.440Z,18.90
2019-04-27T01:10:49.954Z,18.80
2019-04-27T01:13:38.148Z,18.80
2019-04-27T01:16:26.557Z,18.80
2019-04-27T01:19:14.796Z,18.80
2019-04-27T01:22:03.097Z,18.80
2019-04-27T01:24:51.236Z,18.80
2019-04-27T01:27:41.300Z,18.70
2019-04-27T01:30:31.313Z,18.70
2019-04-27T01:33:19.856Z,18.70
2019-04-27T01:36:08.887Z,18.60
2019-04-27T01:38:59.510Z,18.60
2019-04-27T01:41:49.149Z,18.60
2019-04-27T01:44:39.253Z,18.60
2019-04-27T01:47:28.944Z,18.60
2019-04-27T01:50:18.863Z,18.60
2019-04-27T01:53:08.844Z,18.50
2019-04-27T01:55:59.050Z,18.50
2019-04-27T01:58:47.028Z,18.50
2019-04-27T02:01:38.857Z,18.50
2019-04-27T02:04:29.421Z,18.50
2019-04-27T02:07:19.182Z,18.50
2019-04-27T02:10:10.246Z,18.40
2019-04-27T02:12:58.786Z,18.40
2019-04-27T02:15:48.775Z,18.40
2019-04-27T02:18:38.253Z,18.40
2019-04-27T02:21:27.304Z,18.40
2019-04-27T02:24:15.615Z,18.40
2019-04-27T02:27:04.079Z,18.40
2019-04-27T02:30:02.359Z,18.30
2019-04-27T02:33:12.274Z,18.30
2019-04-27T02:35:42.085Z,18.30
2019-04-27T02:38:30.711Z,18.30
2019-04-27T02:41:19.880Z,18.30
2019-04-27T02:44:19.982Z,18.30
2019-04-27T02:47:10.409Z,18.30
2019-04-27T02:50:00.650Z,18.20
2019-04-27T02:52:50.114Z,18.20
2019-04-27T02:55:39.692Z,18.20
2019-04-27T02:58:28.448Z,18.20
2019-04-27T03:01:16.916Z,18.20
2019-04-27T03:04:05.249Z,18.20
2019-04-27T03:06:53.609Z,18.20
2019-04-27T03:09:42.194Z,18.20
2019-04-27T03:12:32.199Z,18.20
2019-04-27T03:15:24.720Z,18.20
2019-04-27T03:18:14.754Z,18.20
2019-04-27T03:21:19.834Z,18.20
2019-04-27T03:24:07.064Z,18.20
2019-04-27T03:26:56.876Z,18.20
2019-04-27T03:29:45.023Z,18.30
2019-04-27T03:32:33.303Z,18.30
2019-04-27T03:35:22.954Z,18.30
2019-04-27T03:38:12.537Z,18.40
2019-04-27T03:41:00.930Z,18.40
2019-04-27T03:43:50.342Z,18.40
2019-04-27T03:46:39.721Z,18.40
2019-04-27T03:49:37.543Z,18.40
2019-04-27T03:52:20.240Z,18.50
2019-04-27T03:55:12.886Z,18.50
2019-04-27T03:58:12.250Z,18.50
2019-04-27T04:01:00.419Z,18.50
2019-04-27T04:03:50.082Z,18.50
2019-04-27T04:06:40.069Z,18.50
2019-04-27T04:09:30.050Z,18.50
2019-04-27T04:12:30.303Z,18.50
2019-04-27T04:15:32.588Z,18.50
2019-04-27T04:18:21.223Z,18.50
2019-04-27T04:21:09.674Z,18.50
2019-04-27T04:23:57.748Z,18.50
2019-04-27T04:26:46.308Z,18.50
2019-04-27T04:29:34.336Z,18.50
2019-04-27T04:32:22.714Z,18.50
2019-04-27T04:35:17.102Z,18.50
2019-04-27T04:38:05.244Z,18.50
2019-04-27T04:40:59.303Z,18.50
2019-04-27T04:43:59.857Z,18.40
2019-04-27T04:46:52.414Z,18.40
2019-04-27T04:49:40.590Z,18.40
2019-04-27T04:52:29.471Z,18.40
2019-04-27T04:55:20.123Z,18.40
2019-04-27T04:58:09.347Z,18.40
2019-04-27T05:00:59.584Z,18.40
2019-04-27T05:03:48.851Z,18.40
2019-04-27T05:06:38.866Z,18.30
2019-04-27T05:09:27.378Z,18.30
2019-04-27T05:12:15.690Z,18.30
2019-04-27T05:15:04.872Z,18.30
2019-04-27T05:17:53.325Z,18.30
2019-04-27T05:20:43.028Z,18.30
2019-04-27T05:23:31.396Z,18.30
2019-04-27T05:26:20.799Z,18.30
2019-04-27T05:29:09.370Z,18.20
2019-04-27T05:31:59.182Z,18.20
2019-04-27T05:34:49.397Z,18.20
2019-04-27T05:37:38.994Z,18.20
2019-04-27T05:40:29.133Z,18.20
2019-04-27T05:43:19.397Z,18.20
2019-04-27T05:46:23.254Z,18.20
2019-04-27T05:49:13.468Z,18.20
2019-04-27T05:52:01.422Z,18.20
2019-04-27T05:54:49.906Z,18.20
2019-04-27T05:57:39.078Z,18.20
2019-04-27T06:00:29.164Z,18.10
2019-04-27T06:03:18.614Z,18.10
2019-04-27T06:06:07.014Z,18.20
2019-04-27T06:08:55.252Z,18.20
2019-04-27T06:11:43.729Z,18.20
2019-04-27T06:14:32.012Z,18.20
2019-04-27T06:17:20.686Z,18.20
2019-04-27T06:20:09.279Z,18.20
2019-04-27T06:22:58.875Z,18.20
2019-04-27T06:25:49.081Z,18.30
2019-04-27T06:28:37.045Z,18.30
2019-04-27T06:31:25.282Z,18.30
2019-04-27T06:34:13.370Z,18.30
2019-04-27T06:37:01.734Z,18.30
2019-04-27T06:39:49.973Z,18.40
2019-04-27T06:42:39.799Z,18.50
2019-04-27T06:45:28.675Z,18.50
2019-04-27T06:48:17.210Z,18.60
2019-04-27T06:51:05.872Z,18.70
2019-04-27T06:53:54.383Z,18.80
2019-04-27T06:56:42.516Z,18.90
2019-04-27T06:59:30.831Z,19.00
2019-04-27T07:02:19.110Z,19.10
2019-04-27T07:05:08.986Z,19.30
2019-04-27T07:07:59.012Z,19.40
2019-04-27T07:10:49.089Z,19.50
2019-04-27T07:13:38.925Z,19.60
2019-04-27T07:16:29.246Z,19.60
2019-04-27T07:19:19.031Z,19.70
2019-04-27T07:22:09.076Z,19.80
2019-04-27T07:24:58.955Z,19.90
2019-04-27T07:27:49.219Z,20.00
2019-04-27T07:30:38.687Z,20.10
2019-04-27T07:33:26.921Z,20.20
2019-04-27T07:36:15.272Z,20.30
2019-04-27T07:39:04.765Z,20.30
2019-04-27T07:41:53.088Z,20.40
2019-04-27T07:44:45.736Z,20.50
2019-04-27T07:47:33.731Z,20.60
2019-04-27T07:50:21.846Z,20.70
2019-04-27T07:53:10.352Z,20.50
2019-04-27T07:55:59.336Z,20.40
2019-04-27T07:58:49.369Z,20.50
2019-04-27T08:01:39.341Z,20.80
2019-04-27T08:04:28.783Z,21.00
2019-04-27T08:07:19.598Z,21.20
2019-04-27T08:10:09.731Z,21.40
2019-04-27T08:12:59.724Z,21.50
2019-04-27T08:15:49.465Z,21.50
2019-04-27T08:18:39.615Z,21.60
2019-04-27T08:21:28.900Z,21.80
2019-04-27T08:24:17.064Z,21.80
2019-04-27T08:27:13.057Z,21.90
2019-04-27T08:30:05.699Z,21.90
2019-04-27T08:32:55.895Z,22.00
2019-04-27T08:35:44.130Z,22.00
2019-04-27T08:38:32.356Z,22.00
2019-04-27T08:41:22.101Z,22.10
2019-04-27T08:44:10.265Z,22.10
2019-04-27T08:46:59.605Z,22.10
2019-04-27T08:49:49.162Z,22.20
2019-04-27T08:52:41.488Z,22.20
2019-04-27T08:55:27.349Z,22.20
2019-04-27T08:58:15.769Z,22.30
2019-04-27T09:01:04.067Z,22.30
2019-04-27T09:03:52.323Z,22.30
2019-04-27T09:06:42.431Z,22.30
2019-04-27T09:09:35.480Z,22.30
2019-04-27T09:12:41.502Z,22.40
2019-04-27T09:15:40.446Z,22.40
2019-04-27T09:18:32.393Z,22.40
2019-04-27T09:21:20.549Z,22.40
2019-04-27T09:24:09.438Z,22.50
2019-04-27T09:26:59.503Z,22.50
2019-04-27T09:29:30.380Z,22.50
2019-04-27T09:32:01.841Z,22.50
2019-04-27T09:34:32.555Z,22.60
2019-04-27T09:37:03.313Z,22.60
2019-04-27T09:39:51.491Z,22.60
2019-04-27T09:42:39.801Z,22.60
2019-04-27T09:45:28.193Z,22.60
2019-04-27T09:48:17.676Z,22.50
2019-04-27T09:51:06.519Z,22.50
2019-04-27T09:53:56.324Z,22.50
2019-04-27T09:56:44.527Z,22.40
2019-04-27T09:59:32.766Z,22.40
2019-04-27T10:02:22.550Z,22.30
2019-04-27T10:05:17.093Z,22.30
2019-04-27T10:08:26.296Z,22.20
2019-04-27T10:11:16.222Z,22.20
2019-04-27T10:14:05.909Z,22.20
2019-04-27T10:16:55.787Z,22.20
2019-04-27T10:19:46.036Z,22.10
2019-04-27T10:22:42.659Z,22.10
2019-04-27T10:25:25.472Z,22.00
2019-04-27T10:28:16.638Z,22.00
2019-04-27T10:31:06.897Z,22.00
2019-04-27T10:33:55.935Z,22.10
2019-04-27T10:36:46.059Z,22.10
2019-04-27T10:39:36.091Z,22.00
2019-04-27T10:42:25.380Z,22.00
2019-04-27T10:45:18.064Z,21.80
2019-04-27T10:48:06.240Z,21.50
2019-04-27T10:50:54.429Z,21.50
2019-04-27T10:53:42.533Z,21.60
2019-04-27T10:56:30.947Z,21.60
2019-04-27T10:59:19.419Z,21.70
2019-04-27T11:02:08.019Z,21.80
2019-04-27T11:05:03.683Z,21.80
2019-04-27T11:07:53.570Z,21.80
2019-04-27T11:10:41.657Z,21.90
2019-04-27T11:13:29.881Z,21.90
2019-04-27T11:16:18.387Z,21.80
2019-04-27T11:19:07.151Z,21.80
2019-04-27T11:21:55.330Z,21.80
2019-04-27T11:24:43.697Z,21.80
2019-04-27T11:27:31.803Z,21.70
2019-04-27T11:30:20.483Z,21.70
2019-04-27T11:33:08.752Z,21.80
2019-04-27T11:35:58.618Z,21.80
2019-04-27T11:38:48.323Z,21.70
2019-04-27T11:41:36.476Z,21.70
2019-04-27T11:44:25.776Z,21.70
2019-04-27T11:47:16.099Z,21.70
2019-04-27T11:50:06.356Z,21.60
2019-04-27T11:52:56.664Z,21.60
2019-04-27T11:55:44.976Z,21.60
2019-04-27T11:58:35.006Z,21.60
2019-04-27T12:01:23.840Z,21.60
2019-04-27T12:04:12.190Z,21.50
2019-04-27T12:07:00.590Z,21.50
2019-04-27T12:09:48.996Z,21.50
2019-04-27T12:12:37.176Z,21.60
2019-04-27T12:15:26.303Z,21.60
2019-04-27T12:18:14.735Z,21.60
2019-04-27T12:21:02.826Z,21.50
2019-04-27T12:23:50.995Z,21.50
2019-04-27T12:26:46.584Z,21.60
2019-04-27T12:29:52.224Z,21.60
2019-04-27T12:32:40.415Z,21.60
2019-04-27T12:35:28.641Z,21.70
2019-04-27T12:38:16.962Z,21.70
2019-04-27T12:41:06.789Z,21.80
2019-04-27T12:43:56.083Z,21.80
2019-04-27T12:46:44.531Z,21.80
2019-04-27T12:49:32.819Z,21.80
2019-04-27T12:52:22.626Z,21.90
2019-04-27T12:55:17.015Z,21.80
2019-04-27T12:58:18.753Z,21.80
2019-04-27T13:01:08.930Z,21.70
2019-04-27T13:03:59.033Z,21.80
2019-04-27T13:06:47.548Z,21.80
2019-04-27T13:09:37.166Z,21.80
2019-04-27T13:12:27.294Z,21.80
2019-04-27T13:15:16.487Z,21.80
2019-04-27T13:18:05.600Z,21.90
2019-04-27T13:20:54.215Z,21.90
2019-04-27T13:23:42.539Z,21.90
2019-04-27T13:26:31.027Z,21.90
2019-04-27T13:29:19.214Z,21.90
2019-04-27T13:32:07.473Z,21.90
2019-04-27T13:34:56.683Z,21.80
2019-04-27T13:37:46.674Z,21.80
2019-04-27T13:40:37.000Z,21.80
2019-04-27T13:43:27.022Z,21.80
2019-04-27T13:46:28.634Z,21.80
2019-04-27T13:49:27.617Z,21.70
2019-04-27T13:52:17.683Z,21.70
2019-04-27T13:55:06.504Z,21.70
2019-04-27T13:57:54.871Z,21.60
2019-04-27T14:00:43.343Z,21.60
2019-04-27T14:03:31.461Z,21.60
2019-04-27T14:06:22.337Z,21.50
2019-04-27T14:09:12.636Z,21.60
2019-04-27T14:12:14.433Z,21.50
2019-04-27T14:15:02.711Z,21.50
2019-04-27T14:17:51.137Z,21.50
2019-04-27T14:20:39.278Z,21.50
2019-04-27T14:23:29.144Z,21.50
2019-04-27T14:26:18.446Z,21.50
2019-04-27T14:29:06.583Z,21.50
2019-04-27T14:31:54.877Z,21.50
2019-04-27T14:34:43.119Z,21.50
2019-04-27T14:37:53.301Z,21.50
2019-04-27T14:40:41.378Z,21.50
2019-04-27T14:43:29.533Z,21.50
2019-04-27T14:46:18.753Z,21.50
2019-04-27T14:49:07.131Z,21.50
2019-04-27T14:51:55.699Z,21.50
2019-04-27T14:54:47.975Z,21.40
2019-04-27T14:57:35.674Z,21.40
2019-04-27T15:00:23.967Z,21.40
2019-04-27T15:03:12.289Z,21.40
2019-04-27T15:06:02.007Z,21.40
2019-04-27T15:08:50.253Z,21.40
2019-04-27T15:11:38.586Z,21.40
2019-04-27T15:14:26.666Z,21.40
2019-04-27T15:17:17.621Z,21.40
2019-04-27T15:20:07.431Z,21.40
2019-04-27T15:22:56.963Z,21.20
2019-04-27T15:25:47.032Z,21.30
2019-04-27T15:28:54.972Z,21.30
2019-04-27T15:31:45.083Z,21.30
2019-04-27T15:34:48.146Z,21.30
2019-04-27T15:37:40.881Z,21.30
2019-04-27T15:40:49.326Z,21.40
2019-04-27T15:43:39.079Z,21.30
2019-04-27T15:46:33.564Z,21.40
2019-04-27T15:49:18.022Z,21.40
2019-04-27T15:52:10.390Z,21.40
2019-04-27T15:54:38.890Z,21.40
2019-04-27T16:00:35.914Z,21.40
2019-04-27T16:03:27.261Z,21.40
2019-04-27T16:06:13.975Z,21.40
2019-04-27T16:09:02.081Z,21.40
2019-04-27T16:11:58.342Z,21.40
2019-04-27T16:14:42.799Z,21.40
2019-04-27T16:17:31.973Z,21.40
2019-04-27T16:20:29.043Z,21.40
2019-04-27T16:23:09.722Z,21.40
2019-04-27T16:26:00.446Z,21.40
2019-04-27T16:28:53.034Z,21.40
2019-04-27T16:31:38.476Z,21.40
2019-04-27T16:34:28.547Z,21.40
2019-04-27T16:37:22.337Z,21.30
2019-04-27T16:40:10.724Z,21.30
2019-04-27T16:42:58.557Z,21.30
2019-04-27T16:45:48.536Z,21.30
2019-04-27T16:48:38.873Z,21.30
2019-04-27T16:51:29.765Z,21.30
2019-04-27T16:54:19.922Z,21.30
2019-04-27T16:57:07.907Z,21.40
2019-04-27T17:00:00.560Z,21.40
2019-04-27T17:02:48.754Z,21.40
2019-04-27T17:05:37.971Z,21.50
2019-04-27T17:08:26.828Z,21.50
2019-04-27T17:11:15.403Z,21.50
2019-04-27T17:14:05.233Z,21.50
2019-04-27T17:17:07.923Z,21.50
2019-04-27T17:19:54.940Z,21.50
2019-04-27T17:22:45.735Z,21.60
2019-04-27T17:25:39.145Z,21.60
2019-04-27T17:28:22.681Z,21.60
2019-04-27T17:31:12.856Z,21.60
2019-04-27T17:34:02.271Z,21.60
2019-04-27T17:36:54.623Z,21.60
2019-04-27T17:39:40.199Z,21.60
2019-04-27T17:42:30.629Z,21.60
2019-04-27T17:45:21.385Z,21.60
2019-04-27T17:48:10.898Z,21.60
2019-04-27T17:51:02.625Z,21.60
2019-04-27T17:53:49.698Z,21.60
2019-04-27T17:56:48.411Z,21.50
2019-04-27T17:59:26.751Z,21.50
2019-04-27T18:02:15.214Z,21.50
2019-04-27T18:05:04.193Z,21.50
2019-04-27T18:07:53.325Z,21.50
2019-04-27T18:10:41.649Z,21.40
2019-04-27T18:13:30.229Z,21.40
2019-04-27T18:16:19.071Z,21.40
2019-04-27T18:19:20.836Z,21.40
2019-04-27T18:22:09.068Z,21.40
2019-04-27T18:25:03.442Z,21.30
2019-04-27T18:27:50.643Z,21.30
2019-04-27T18:30:52.468Z,21.30
2019-04-27T18:33:41.066Z,21.30
2019-04-27T18:36:29.557Z,21.20
2019-04-27T18:39:18.206Z,21.20
2019-04-27T18:42:06.678Z,21.20
2019-04-27T18:44:54.875Z,21.20
2019-04-27T18:47:44.870Z,21.20
2019-04-27T18:50:38.420Z,21.10
2019-04-27T18:53:28.846Z,21.10
2019-04-27T18:56:18.758Z,21.10
2019-04-27T18:59:08.325Z,21.20
2019-04-27T19:01:58.029Z,21.10
2019-04-27T19:04:46.332Z,21.20
2019-04-27T19:07:34.917Z,21.10
2019-04-27T19:10:23.547Z,21.10
2019-04-27T19:13:12.196Z,21.10
2019-04-27T19:16:00.749Z,21.10
2019-04-27T19:18:49.215Z,21.20
2019-04-27T19:21:39.108Z,21.20
2019-04-27T19:24:28.237Z,21.20
2019-04-27T19:27:33.023Z,21.20
2019-04-27T19:30:27.947Z,21.20
2019-04-27T19:33:16.002Z,21.20
2019-04-27T19:36:04.411Z,21.30
2019-04-27T19:38:53.087Z,21.30
2019-04-27T19:41:40.992Z,21.30
2019-04-27T19:44:11.806Z,21.30
2019-04-27T19:47:00.444Z,21.30
2019-04-27T19:49:48.972Z,21.30
2019-04-27T19:52:38.804Z,21.30
2019-04-27T19:55:28.181Z,21.30
2019-04-27T19:58:19.749Z,21.30
2019-04-27T20:01:13.821Z,21.30
2019-04-27T20:04:00.818Z,21.30
2019-04-27T20:06:49.062Z,21.30
2019-04-27T20:09:39.361Z,21.20
2019-04-27T20:12:27.705Z,21.20
2019-04-27T20:15:16.148Z,21.20
2019-04-27T20:18:04.270Z,21.20
2019-04-27T20:20:52.428Z,21.10
2019-04-27T20:23:40.889Z,21.10
2019-04-27T20:26:29.624Z,21.10
2019-04-27T20:29:17.863Z,21.10
2019-04-27T20:32:06.211Z,21.10
2019-04-27T20:34:54.693Z,21.00
2019-04-27T20:37:43.174Z,21.00
2019-04-27T20:40:31.643Z,21.00
2019-04-27T20:43:21.361Z,21.00
2019-04-27T20:46:11.719Z,20.90
2019-04-27T20:49:01.216Z,20.90
2019-04-27T20:52:00.996Z,20.90
2019-04-27T20:54:51.375Z,20.90
2019-04-27T20:57:39.363Z,20.90
2019-04-27T21:00:27.504Z,20.80
2019-04-27T21:03:19.806Z,20.80
2019-04-27T21:06:12.178Z,20.80
2019-04-27T21:09:01.166Z,20.80
2019-04-27T21:11:50.320Z,20.70
2019-04-27T21:14:38.741Z,20.70
2019-04-27T21:17:26.773Z,20.70
2019-04-27T21:20:14.967Z,20.70
2019-04-27T21:23:03.364Z,20.70
2019-04-27T21:25:53.623Z,20.60
2019-04-27T21:28:44.853Z,20.60
2019-04-27T21:31:33.203Z,20.60
2019-04-27T21:34:21.475Z,20.50
2019-04-27T21:37:11.070Z,20.50
2019-04-27T21:40:13.098Z,20.50
2019-04-27T21:43:01.406Z,20.50
2019-04-27T21:45:33.742Z,20.50
2019-04-27T21:48:21.974Z,20.40
2019-04-27T21:51:11.842Z,20.40
2019-04-27T21:54:13.988Z,20.40
2019-04-27T21:57:03.461Z,20.40
2019-04-27T21:59:51.583Z,20.30
2019-04-27T22:02:41.025Z,20.30
2019-04-27T22:05:31.371Z,20.30
2019-04-27T22:08:19.350Z,20.30
2019-04-27T22:11:07.854Z,20.20
2019-04-27T22:13:56.027Z,20.20
2019-04-27T22:16:44.370Z,20.20
2019-04-27T22:19:32.726Z,20.20
2019-04-27T22:22:22.897Z,20.10
2019-04-27T22:25:12.306Z,20.10
2019-04-27T22:28:01.543Z,20.10
2019-04-27T22:30:49.773Z,20.10
2019-04-27T22:33:42.693Z,20.10
2019-04-27T22:36:29.345Z,20.10
2019-04-27T22:39:22.188Z,20.00
2019-04-27T22:42:12.220Z,20.00
2019-04-27T22:45:02.183Z,20.00
2019-04-27T22:47:51.261Z,20.00
2019-04-27T22:50:41.359Z,19.90
2019-04-27T22:53:30.645Z,19.90
2019-04-27T22:56:22.319Z,19.90
2019-04-27T22:59:12.189Z,19.90
2019-04-27T23:02:02.027Z,19.90
2019-04-27T23:04:54.668Z,19.90
2019-04-27T23:07:42.757Z,19.80
2019-04-27T23:10:31.575Z,19.80
2019-04-27T23:13:21.345Z,19.80
2019-04-27T23:16:12.848Z,19.80
2019-04-27T23:19:01.856Z,19.70
2019-04-27T23:21:53.022Z,19.70
2019-04-27T23:24:41.456Z,19.70
2019-04-27T23:27:31.706Z,19.60
2019-04-27T23:30:22.853Z,19.60
2019-04-27T23:33:11.227Z,19.60
2019-04-27T23:35:59.202Z,19.60
2019-04-27T23:38:47.449Z,19.60
2019-04-27T23:41:35.923Z,19.60
2019-04-27T23:44:24.437Z,19.60
2019-04-27T23:46:55.079Z,19.50
2019-04-27T23:49:43.167Z,19.50
2019-04-27T23:52:50.672Z,19.50
2019-04-27T23:55:39.891Z,19.50
2019-04-27T23:58:28.100Z,19.50
